Time,TemperatureF,DewpointF,PressureIn,WindDirection,WindDirectionDegrees,WindSpeedMPH,WindSpeedGustMPH,Humidity,HourlyPrecipIn,Conditions,Clouds,dailyrainin,SoftwareType,DateUTC
2013-02-05 15:47:00,66.3,50.1,30.02,SSW,210,0.0,0.0,56,0.00,,,0.00,WUHU216DAVISVP2,2013-02-05 20:47:00,
2013-02-05 15:52:00,65.8,50.8,30.02,WNW,284,0.0,0.0,58,0.00,,,0.00,WUHU216DAVISVP2,2013-02-05 20:52:00,
2013-02-05 15:57:00,65.5,51.4,30.02,WNW,283,0.0,1.0,60,0.00,,,0.00,WUHU216DAVISVP2,2013-02-05 20:57:00,
2013-02-05 16:02:00,65.2,51.6,30.01,WNW,282,0.0,1.0,61,0.00,,,0.00,WUHU216DAVISVP2,2013-02-05 21:02:00,
2013-02-05 16:07:00,65.0,51.4,30.01,ESE,117,0.0,1.0,61,0.00,,,0.00,WUHU216DAVISVP2,2013-02-05 21:07:00,
2013-02-05 16:12:00,65.1,51.5,30.02,SW,235,0.0,3.0,61,0.00,,,0.00,WUHU216DAVISVP2,2013-02-05 21:12:00,
2013-02-05 16:17:00,65.3,51.7,30.01,SW,235,0.0,3.0,61,0.00,,,0.00,WUHU216DAVISVP2,2013-02-05 21:17:00,
2013-02-05 16:22:00,65.6,51.9,30.02,SW,234,0.0,0.0,61,0.00,,,0.00,WUHU216DAVISVP2,2013-02-05 21:22:00,
2013-02-05 16:27:00,65.9,52.2,30.02,SW,234,0.0,0.0,61,0.00,,,0.00,WUHU216DAVISVP2,2013-02-05 21:27:00,
2013-02-05 16:32:00,66.2,52.5,30.02,SW,235,0.0,1.0,61,0.00,,,0.00,WUHU216DAVISVP2,2013-02-05 21:32:00,
2013-02-05 16:37:00,66.3,51.2,30.02,SW,234,0.0,1.0,58,0.00,,,0.00,WUHU216DAVISVP2,2013-02-05 21:37:00,
2013-02-05 16:42:00,66.2,52.5,30.02,SW,232,0.0,1.0,61,0.00,,,0.00,WUHU216DAVISVP2,2013-02-05 21:42:00,
2013-02-05 16:47:00,65.9,52.2,30.02,SW,230,0.0,0.0,61,0.00,,,0.00,WUHU216DAVISVP2,2013-02-05 21:47:00,
2013-02-05 16:52:00,65.4,51.8,30.02,SW,235,0.0,0.0,61,0.00,,,0.00,WUHU216DAVISVP2,2013-02-05 21:52:00,
2013-02-05 16:57:00,65.1,51.5,30.02,SW,235,0.0,0.0,61,0.00,,,0.00,WUHU216DAVISVP2,2013-02-05 21:57:00,
2013-02-05 17:02:00,64.8,50.7,30.02,SW,235,0.0,0.0,60,0.00,,,0.00,WUHU216DAVISVP2,2013-02-05 22:02:00,
2013-02-05 17:07:00,64.4,49.4,30.02,SW,236,0.0,1.0,58,0.00,,,0.00,WUHU216DAVISVP2,2013-02-05 22:07:00,
2013-02-05 17:12:00,64.0,49.1,30.02,SW,236,0.0,1.0,58,0.00,,,0.00,WUHU216DAVISVP2,2013-02-05 22:12:00,
2013-02-05 17:17:00,63.8,48.9,30.02,SW,236,0.0,0.0,58,0.00,,,0.00,WUHU216DAVISVP2,2013-02-05 22:17:00,
2013-02-05 17:23:00,63.6,50.1,30.02,SW,236,0.0,0.0,61,0.00,,,0.00,WUHU216DAVISVP2,2013-02-05 22:23:00,
2013-02-05 17:27:00,63.3,50.6,30.02,SW,236,0.0,1.0,63,0.00,,,0.00,WUHU216DAVISVP2,2013-02-05 22:27:00,
2013-02-05 17:32:00,63.2,51.4,30.02,SW,236,0.0,1.0,65,0.00,,,0.00,WUHU216DAVISVP2,2013-02-05 22:32:00,
2013-02-05 17:38:00,63.0,51.6,30.02,SW,236,0.0,1.0,66,0.00,,,0.00,WUHU216DAVISVP2,2013-02-05 22:38:00,
2013-02-05 17:42:00,62.9,51.9,30.01,SW,236,0.0,1.0,67,0.00,,,0.00,WUHU216DAVISVP2,2013-02-05 22:42:00,
2013-02-05 17:47:00,62.7,52.1,30.01,SW,236,0.0,1.0,68,0.00,,,0.00,WUHU216DAVISVP2,2013-02-05 22:47:00,
2013-02-05 17:52:00,62.6,52.4,30.01,SW,236,0.0,1.0,69,0.00,,,0.00,WUHU216DAVISVP2,2013-02-05 22:52:00,
2013-02-05 17:57:00,62.4,52.6,30.00,SW,236,0.0,1.0,70,0.00,,,0.00,WUHU216DAVISVP2,2013-02-05 22:57:00,
2013-02-05 18:03:00,62.3,52.1,30.00,SW,236,0.0,1.0,69,0.00,,,0.00,WUHU216DAVISVP2,2013-02-05 23:03:00,
2013-02-05 18:07:00,62.2,52.4,30.01,SW,236,0.0,0.0,70,0.00,,,0.00,WUHU216DAVISVP2,2013-02-05 23:07:00,
2013-02-05 18:13:00,62.1,52.3,30.01,SW,236,0.0,1.0,70,0.00,,,0.00,WUHU216DAVISVP2,2013-02-05 23:13:00,
2013-02-05 18:18:00,62.0,52.2,30.01,SW,236,0.0,1.0,70,0.00,,,0.00,WUHU216DAVISVP2,2013-02-05 23:18:00,
2013-02-05 18:23:00,61.8,51.7,30.01,SW,236,0.0,1.0,69,0.00,,,0.00,WUHU216DAVISVP2,2013-02-05 23:23:00,
2013-02-05 18:27:00,61.8,51.7,30.01,SW,236,0.0,1.0,69,0.00,,,0.00,WUHU216DAVISVP2,2013-02-05 23:27:00,
2013-02-05 18:32:00,61.8,52.1,30.01,SW,236,0.0,0.0,70,0.00,,,0.00,WUHU216DAVISVP2,2013-02-05 23:32:00,
2013-02-05 18:37:00,61.8,52.4,30.02,SW,236,0.0,0.0,71,0.00,,,0.00,WUHU216DAVISVP2,2013-02-05 23:37:00,
2013-02-05 18:43:00,61.8,52.4,30.02,SW,236,0.0,0.0,71,0.00,,,0.00,WUHU216DAVISVP2,2013-02-05 23:43:00,
2013-02-05 18:48:00,61.7,52.3,30.02,SW,236,0.0,0.0,71,0.00,,,0.00,WUHU216DAVISVP2,2013-02-05 23:48:00,
2013-02-05 18:53:00,61.6,52.2,30.02,SW,236,0.0,0.0,71,0.00,,,0.00,WUHU216DAVISVP2,2013-02-05 23:53:00,
2013-02-05 18:58:00,61.6,52.6,30.02,SW,236,0.0,0.0,72,0.00,,,0.00,WUHU216DAVISVP2,2013-02-05 23:58:00,
2013-02-05 19:03:00,61.4,52.4,30.03,SW,236,0.0,0.0,72,0.00,,,0.00,WUHU216DAVISVP2,2013-02-06 00:03:00,
2013-02-05 19:08:00,61.3,52.7,30.03,SW,236,0.0,0.0,73,0.00,,,0.00,WUHU216DAVISVP2,2013-02-06 00:08:00,
2013-02-05 19:13:00,61.1,52.5,30.03,SW,236,0.0,0.0,73,0.00,,,0.00,WUHU216DAVISVP2,2013-02-06 00:13:00,
2013-02-05 19:18:00,61.1,52.5,30.03,SW,236,0.0,0.0,73,0.00,,,0.00,WUHU216DAVISVP2,2013-02-06 00:18:00,
2013-02-05 19:23:00,60.9,52.7,30.03,SW,236,0.0,0.0,74,0.00,,,0.00,WUHU216DAVISVP2,2013-02-06 00:23:00,
2013-02-05 19:28:00,60.7,52.5,30.03,SW,236,0.0,0.0,74,0.00,,,0.00,WUHU216DAVISVP2,2013-02-06 00:28:00,
2013-02-05 19:33:00,60.5,52.3,30.03,SW,236,0.0,0.0,74,0.00,,,0.00,WUHU216DAVISVP2,2013-02-06 00:33:00,
2013-02-05 19:38:00,60.4,52.5,30.03,SW,236,0.0,0.0,75,0.00,,,0.00,WUHU216DAVISVP2,2013-02-06 00:38:00,
2013-02-05 19:43:00,60.2,52.3,30.03,SW,236,0.0,0.0,75,0.00,,,0.00,WUHU216DAVISVP2,2013-02-06 00:43:00,
2013-02-05 19:48:00,60.0,52.5,30.03,SW,236,0.0,0.0,76,0.00,,,0.00,WUHU216DAVISVP2,2013-02-06 00:48:00,
2013-02-05 19:53:00,59.9,52.8,30.03,SW,236,0.0,0.0,77,0.00,,,0.00,WUHU216DAVISVP2,2013-02-06 00:53:00,
2013-02-05 19:58:00,59.8,52.7,30.03,SW,236,0.0,0.0,77,0.00,,,0.00,WUHU216DAVISVP2,2013-02-06 00:58:00,
2013-02-05 20:03:00,59.6,52.1,30.03,WSW,237,0.0,0.0,76,0.00,,,0.00,WUHU216DAVISVP2,2013-02-06 01:03:00,
2013-02-05 20:08:00,59.6,52.5,30.03,WSW,237,0.0,0.0,77,0.00,,,0.00,WUHU216DAVISVP2,2013-02-06 01:08:00,
2013-02-05 20:13:00,59.5,52.4,30.03,WSW,237,0.0,0.0,77,0.00,,,0.00,WUHU216DAVISVP2,2013-02-06 01:13:00,
2013-02-05 20:18:00,59.4,52.3,30.04,WSW,237,0.0,0.0,77,0.00,,,0.00,WUHU216DAVISVP2,2013-02-06 01:18:00,
2013-02-05 20:23:00,59.4,52.3,30.03,WSW,237,0.0,0.0,77,0.00,,,0.00,WUHU216DAVISVP2,2013-02-06 01:23:00,
2013-02-05 20:28:00,59.4,52.6,30.04,WSW,237,0.0,0.0,78,0.00,,,0.00,WUHU216DAVISVP2,2013-02-06 01:28:00,
2013-02-05 20:33:00,59.4,52.3,30.04,WSW,237,0.0,0.0,77,0.00,,,0.00,WUHU216DAVISVP2,2013-02-06 01:33:00,
2013-02-05 20:38:00,59.4,52.3,30.04,WSW,237,0.0,0.0,77,0.00,,,0.00,WUHU216DAVISVP2,2013-02-06 01:38:00,
2013-02-05 20:43:00,59.3,52.5,30.04,WSW,237,0.0,0.0,78,0.00,,,0.00,WUHU216DAVISVP2,2013-02-06 01:43:00,
2013-02-05 20:48:00,59.3,52.5,30.04,WSW,237,0.0,0.0,78,0.00,,,0.00,WUHU216DAVISVP2,2013-02-06 01:48:00,
2013-02-05 20:53:00,59.3,52.5,30.05,WSW,237,0.0,0.0,78,0.00,,,0.00,WUHU216DAVISVP2,2013-02-06 01:53:00,
2013-02-05 20:58:00,59.4,52.6,30.05,WSW,237,0.0,0.0,78,0.00,,,0.00,WUHU216DAVISVP2,2013-02-06 01:58:00,
2013-02-05 21:03:00,59.4,52.6,30.05,WSW,237,0.0,0.0,78,0.00,,,0.00,WUHU216DAVISVP2,2013-02-06 02:03:00,
2013-02-05 21:08:00,59.4,52.6,30.05,WSW,237,0.0,0.0,78,0.00,,,0.00,WUHU216DAVISVP2,2013-02-06 02:08:00,
2013-02-05 21:13:00,59.4,52.6,30.05,WSW,237,0.0,0.0,78,0.00,,,0.00,WUHU216DAVISVP2,2013-02-06 02:13:00,
2013-02-05 21:18:00,59.4,52.6,30.05,WSW,237,0.0,0.0,78,0.00,,,0.00,WUHU216DAVISVP2,2013-02-06 02:18:00,
2013-02-05 21:23:00,59.4,52.6,30.06,WSW,237,0.0,0.0,78,0.00,,,0.00,WUHU216DAVISVP2,2013-02-06 02:23:00,
2013-02-05 21:28:00,59.4,52.6,30.06,SW,236,0.0,0.0,78,0.00,,,0.00,WUHU216DAVISVP2,2013-02-06 02:28:00,
2013-02-05 21:33:00,59.5,52.7,30.06,SW,236,0.0,0.0,78,0.00,,,0.00,WUHU216DAVISVP2,2013-02-06 02:33:00,
2013-02-05 21:38:00,59.6,53.1,30.06,SW,236,0.0,0.0,79,0.00,,,0.00,WUHU216DAVISVP2,2013-02-06 02:38:00,
2013-02-05 21:43:00,59.6,53.1,30.06,SW,236,0.0,0.0,79,0.00,,,0.00,WUHU216DAVISVP2,2013-02-06 02:43:00,
2013-02-05 21:48:00,59.7,53.6,30.06,SW,236,0.0,0.0,80,0.00,,,0.00,WUHU216DAVISVP2,2013-02-06 02:48:00,
2013-02-05 21:53:00,59.7,53.6,30.06,SW,236,0.0,0.0,80,0.00,,,0.00,WUHU216DAVISVP2,2013-02-06 02:53:00,
2013-02-05 21:58:00,59.8,54.0,30.07,SW,236,0.0,0.0,81,0.00,,,0.00,WUHU216DAVISVP2,2013-02-06 02:58:00,
2013-02-05 22:03:00,59.8,54.3,30.07,SW,236,0.0,0.0,82,0.00,,,0.00,WUHU216DAVISVP2,2013-02-06 03:03:00,
2013-02-05 22:08:00,59.8,54.3,30.06,SW,236,0.0,0.0,82,0.00,,,0.00,WUHU216DAVISVP2,2013-02-06 03:08:00,
2013-02-05 22:13:00,59.7,54.6,30.06,WSW,237,0.0,0.0,83,0.00,,,0.00,WUHU216DAVISVP2,2013-02-06 03:13:00,
2013-02-05 22:18:00,59.6,54.5,30.06,SW,236,0.0,0.0,83,0.00,,,0.00,WUHU216DAVISVP2,2013-02-06 03:18:00,
2013-02-05 22:23:00,59.4,54.3,30.06,SW,236,0.0,0.0,83,0.00,,,0.00,WUHU216DAVISVP2,2013-02-06 03:23:00,
2013-02-05 22:28:00,59.4,54.3,30.06,SW,236,0.0,0.0,83,0.00,,,0.00,WUHU216DAVISVP2,2013-02-06 03:28:00,
2013-02-05 22:33:00,59.3,54.2,30.06,SW,236,0.0,0.0,83,0.00,,,0.00,WUHU216DAVISVP2,2013-02-06 03:33:00,
2013-02-05 22:38:00,59.2,54.4,30.06,SW,236,0.0,0.0,84,0.00,,,0.00,WUHU216DAVISVP2,2013-02-06 03:38:00,
2013-02-05 22:43:00,59.1,54.3,30.06,SW,236,0.0,0.0,84,0.00,,,0.00,WUHU216DAVISVP2,2013-02-06 03:43:00,
2013-02-05 22:48:00,59.1,54.3,30.05,SW,236,0.0,0.0,84,0.00,,,0.00,WUHU216DAVISVP2,2013-02-06 03:48:00,
2013-02-05 22:53:00,59.1,54.6,30.05,SW,236,0.0,0.0,85,0.00,,,0.00,WUHU216DAVISVP2,2013-02-06 03:53:00,
2013-02-05 22:58:00,59.0,54.5,30.05,SW,236,0.0,0.0,85,0.00,,,0.00,WUHU216DAVISVP2,2013-02-06 03:58:00,
2013-02-05 23:03:00,58.9,54.7,30.06,SW,236,0.0,0.0,86,0.00,,,0.00,WUHU216DAVISVP2,2013-02-06 04:03:00,
2013-02-05 23:08:00,58.8,54.6,30.06,SW,236,0.0,0.0,86,0.00,,,0.00,WUHU216DAVISVP2,2013-02-06 04:08:00,
2013-02-05 23:13:00,58.8,54.6,30.06,SW,236,0.0,0.0,86,0.00,,,0.00,WUHU216DAVISVP2,2013-02-06 04:13:00,
2013-02-05 23:18:00,58.7,54.8,30.06,SW,236,0.0,0.0,87,0.00,,,0.00,WUHU216DAVISVP2,2013-02-06 04:18:00,
2013-02-05 23:23:00,58.6,54.7,30.06,SW,236,0.0,0.0,87,0.00,,,0.00,WUHU216DAVISVP2,2013-02-06 04:23:00,
2013-02-05 23:28:00,58.5,54.6,30.06,SW,236,0.0,0.0,87,0.00,,,0.00,WUHU216DAVISVP2,2013-02-06 04:28:00,
2013-02-05 23:33:00,58.4,54.5,30.06,SW,236,0.0,0.0,87,0.00,,,0.00,WUHU216DAVISVP2,2013-02-06 04:33:00,
2013-02-05 23:38:00,58.3,54.4,30.06,SW,236,0.0,0.0,87,0.00,,,0.00,WUHU216DAVISVP2,2013-02-06 04:38:00,
2013-02-05 23:43:00,58.2,54.3,30.07,SW,236,0.0,0.0,87,0.00,,,0.00,WUHU216DAVISVP2,2013-02-06 04:43:00,
2013-02-05 23:48:00,58.2,54.3,30.06,SW,236,0.0,0.0,87,0.00,,,0.00,WUHU216DAVISVP2,2013-02-06 04:48:00,
2013-02-05 23:53:00,58.2,54.3,30.06,SW,236,0.0,0.0,87,0.00,,,0.00,WUHU216DAVISVP2,2013-02-06 04:53:00,
2013-02-05 23:58:00,58.2,54.3,30.06,SW,236,0.0,0.0,87,0.00,,,0.00,WUHU216DAVISVP2,2013-02-06 04:58:00,